sensor_id;sensor_type;location;lat;lon;timestamp;P1;durP1;ratioP1;P2;durP2;ratioP2
41623;SDS011;27319;50.306;18.926;2023-12-07T00:03:07;97.05;;;42.35;;
41623;SDS011;27319;50.306;18.926;2023-12-07T00:07:08;104.53;;;45.63;;
41623;SDS011;27319;50.306;18.926;2023-12-07T00:11:09;85.75;;;37.00;;
41623;SDS011;27319;50.306;18.926;2023-12-07T00:15:09;83.65;;;38.72;;
41623;SDS011;27319;50.306;18.926;2023-12-07T00:19:10;95.97;;;38.53;;
41623;SDS011;27319;50.306;18.926;2023-12-07T00:23:11;81.55;;;36.53;;
41623;SDS011;27319;50.306;18.926;2023-12-07T00:27:12;89.00;;;36.85;;
41623;SDS011;27319;50.306;18.926;2023-12-07T00:31:13;79.47;;;36.83;;
41623;SDS011;27319;50.306;18.926;2023-12-07T00:35:13;74.88;;;32.13;;
41623;SDS011;27319;50.306;18.926;2023-12-07T00:39:14;69.35;;;30.27;;
41623;SDS011;27319;50.306;18.926;2023-12-07T00:43:15;77.40;;;29.80;;
41623;SDS011;27319;50.306;18.926;2023-12-07T00:47:15;67.28;;;30.10;;
41623;SDS011;27319;50.306;18.926;2023-12-07T00:51:16;75.50;;;30.35;;
41623;SDS011;27319;50.306;18.926;2023-12-07T00:55:17;69.20;;;32.03;;
41623;SDS011;27319;50.306;18.926;2023-12-07T00:59:18;71.93;;;29.90;;
41623;SDS011;27319;50.306;18.926;2023-12-07T01:03:19;62.75;;;27.85;;
41623;SDS011;27319;50.306;18.926;2023-12-07T01:07:20;71.22;;;28.30;;
41623;SDS011;27319;50.306;18.926;2023-12-07T01:11:20;70.35;;;29.23;;
41623;SDS011;27319;50.306;18.926;2023-12-07T01:15:21;71.50;;;28.33;;
41623;SDS011;27319;50.306;18.926;2023-12-07T01:19:22;67.05;;;26.83;;
41623;SDS011;27319;50.306;18.926;2023-12-07T01:23:23;69.55;;;28.83;;
41623;SDS011;27319;50.306;18.926;2023-12-07T01:27:24;63.50;;;29.48;;
41623;SDS011;27319;50.306;18.926;2023-12-07T01:31:24;64.45;;;26.83;;
41623;SDS011;27319;50.306;18.926;2023-12-07T01:35:25;73.65;;;29.83;;
41623;SDS011;27319;50.306;18.926;2023-12-07T01:39:26;66.82;;;27.10;;
41623;SDS011;27319;50.306;18.926;2023-12-07T01:43:27;66.45;;;27.55;;
41623;SDS011;27319;50.306;18.926;2023-12-07T01:47:28;65.72;;;28.13;;
41623;SDS011;27319;50.306;18.926;2023-12-07T01:51:29;75.05;;;30.38;;
41623;SDS011;27319;50.306;18.926;2023-12-07T01:55:29;66.13;;;28.02;;
41623;SDS011;27319;50.306;18.926;2023-12-07T01:59:30;72.40;;;30.33;;
41623;SDS011;27319;50.306;18.926;2023-12-07T02:03:31;69.55;;;30.60;;
41623;SDS011;27319;50.306;18.926;2023-12-07T02:07:32;75.40;;;30.15;;
41623;SDS011;27319;50.306;18.926;2023-12-07T02:11:32;65.93;;;28.60;;
41623;SDS011;27319;50.306;18.926;2023-12-07T02:15:33;64.30;;;26.70;;
41623;SDS011;27319;50.306;18.926;2023-12-07T02:23:26;70.28;;;28.13;;
41623;SDS011;27319;50.306;18.926;2023-12-07T02:27:39;71.68;;;30.77;;
41623;SDS011;27319;50.306;18.926;2023-12-07T02:31:39;65.20;;;28.13;;
41623;SDS011;27319;50.306;18.926;2023-12-07T02:35:40;62.75;;;28.65;;
41623;SDS011;27319;50.306;18.926;2023-12-07T02:39:41;78.07;;;26.70;;
41623;SDS011;27319;50.306;18.926;2023-12-07T02:43:42;62.65;;;27.58;;
41623;SDS011;27319;50.306;18.926;2023-12-07T02:47:43;73.55;;;30.25;;
41623;SDS011;27319;50.306;18.926;2023-12-07T02:51:44;70.22;;;28.65;;
41623;SDS011;27319;50.306;18.926;2023-12-07T02:55:44;73.07;;;29.50;;
41623;SDS011;27319;50.306;18.926;2023-12-07T02:59:45;82.53;;;31.50;;
41623;SDS011;27319;50.306;18.926;2023-12-07T03:03:46;90.75;;;34.67;;
41623;SDS011;27319;50.306;18.926;2023-12-07T03:07:47;89.35;;;34.20;;
41623;SDS011;27319;50.306;18.926;2023-12-07T03:11:48;94.80;;;34.10;;
41623;SDS011;27319;50.306;18.926;2023-12-07T03:15:49;101.25;;;36.10;;
41623;SDS011;27319;50.306;18.926;2023-12-07T03:19:50;91.00;;;34.60;;
41623;SDS011;27319;50.306;18.926;2023-12-07T03:23:50;110.53;;;40.38;;
41623;SDS011;27319;50.306;18.926;2023-12-07T03:27:52;107.18;;;39.97;;
41623;SDS011;27319;50.306;18.926;2023-12-07T03:31:53;92.28;;;35.13;;
41623;SDS011;27319;50.306;18.926;2023-12-07T03:35:53;109.25;;;38.83;;
41623;SDS011;27319;50.306;18.926;2023-12-07T03:39:54;102.20;;;38.80;;
41623;SDS011;27319;50.306;18.926;2023-12-07T03:43:55;92.43;;;34.55;;
41623;SDS011;27319;50.306;18.926;2023-12-07T03:47:56;87.88;;;33.30;;
41623;SDS011;27319;50.306;18.926;2023-12-07T03:51:56;86.65;;;33.60;;
41623;SDS011;27319;50.306;18.926;2023-12-07T03:55:57;84.90;;;32.90;;
41623;SDS011;27319;50.306;18.926;2023-12-07T03:59:44;80.25;;;31.17;;
41623;SDS011;27319;50.306;18.926;2023-12-07T04:03:45;94.50;;;35.47;;
41623;SDS011;27319;50.306;18.926;2023-12-07T04:07:46;97.82;;;32.85;;
41623;SDS011;27319;50.306;18.926;2023-12-07T04:11:47;95.20;;;35.40;;
41623;SDS011;27319;50.306;18.926;2023-12-07T04:15:48;89.95;;;34.10;;
41623;SDS011;27319;50.306;18.926;2023-12-07T04:19:51;98.78;;;35.97;;
41623;SDS011;27319;50.306;18.926;2023-12-07T04:23:52;97.50;;;35.00;;
41623;SDS011;27319;50.306;18.926;2023-12-07T04:27:53;103.38;;;37.15;;
41623;SDS011;27319;50.306;18.926;2023-12-07T04:31:54;93.88;;;35.85;;
41623;SDS011;27319;50.306;18.926;2023-12-07T04:35:55;89.10;;;33.95;;
41623;SDS011;27319;50.306;18.926;2023-12-07T04:39:55;90.93;;;33.25;;
41623;SDS011;27319;50.306;18.926;2023-12-07T04:43:56;83.40;;;31.63;;
41623;SDS011;27319;50.306;18.926;2023-12-07T04:47:57;88.32;;;33.33;;
41623;SDS011;27319;50.306;18.926;2023-12-07T04:51:58;83.50;;;33.08;;
41623;SDS011;27319;50.306;18.926;2023-12-07T04:55:59;82.93;;;32.08;;
41623;SDS011;27319;50.306;18.926;2023-12-07T04:59:59;86.38;;;34.08;;
41623;SDS011;27319;50.306;18.926;2023-12-07T05:04:00;92.35;;;32.80;;
41623;SDS011;27319;50.306;18.926;2023-12-07T05:08:01;82.32;;;30.33;;
41623;SDS011;27319;50.306;18.926;2023-12-07T05:12:02;86.57;;;30.83;;
41623;SDS011;27319;50.306;18.926;2023-12-07T05:16:03;83.95;;;32.38;;
41623;SDS011;27319;50.306;18.926;2023-12-07T05:20:04;79.93;;;31.88;;
41623;SDS011;27319;50.306;18.926;2023-12-07T05:24:04;88.55;;;32.25;;
41623;SDS011;27319;50.306;18.926;2023-12-07T05:27:05;92.72;;;36.05;;
41623;SDS011;27319;50.306;18.926;2023-12-07T05:31:06;96.57;;;38.85;;
41623;SDS011;27319;50.306;18.926;2023-12-07T05:35:07;101.82;;;37.38;;
41623;SDS011;27319;50.306;18.926;2023-12-07T05:39:08;101.13;;;37.75;;
41623;SDS011;27319;50.306;18.926;2023-12-07T05:43:09;100.35;;;36.55;;
41623;SDS011;27319;50.306;18.926;2023-12-07T05:47:09;111.70;;;38.00;;
41623;SDS011;27319;50.306;18.926;2023-12-07T05:51:13;94.95;;;37.75;;
41623;SDS011;27319;50.306;18.926;2023-12-07T05:55:14;90.50;;;35.65;;
41623;SDS011;27319;50.306;18.926;2023-12-07T05:59:14;88.57;;;34.53;;
41623;SDS011;27319;50.306;18.926;2023-12-07T06:03:18;94.55;;;36.80;;
41623;SDS011;27319;50.306;18.926;2023-12-07T06:07:19;92.38;;;37.60;;
41623;SDS011;27319;50.306;18.926;2023-12-07T06:10:20;92.43;;;37.30;;
41623;SDS011;27319;50.306;18.926;2023-12-07T06:14:20;104.90;;;37.03;;
41623;SDS011;27319;50.306;18.926;2023-12-07T06:18:21;95.68;;;36.78;;
41623;SDS011;27319;50.306;18.926;2023-12-07T06:22:22;100.22;;;37.47;;
41623;SDS011;27319;50.306;18.926;2023-12-07T06:25:23;102.38;;;35.88;;
41623;SDS011;27319;50.306;18.926;2023-12-07T06:28:24;101.72;;;38.72;;
41623;SDS011;27319;50.306;18.926;2023-12-07T06:31:24;92.68;;;36.05;;
41623;SDS011;27319;50.306;18.926;2023-12-07T06:34:26;93.00;;;34.80;;
41623;SDS011;27319;50.306;18.926;2023-12-07T06:37:28;105.22;;;37.97;;
41623;SDS011;27319;50.306;18.926;2023-12-07T06:41:29;95.65;;;37.33;;
41623;SDS011;27319;50.306;18.926;2023-12-07T06:45:29;95.20;;;37.17;;
41623;SDS011;27319;50.306;18.926;2023-12-07T06:49:30;109.68;;;41.97;;
41623;SDS011;27319;50.306;18.926;2023-12-07T06:53:31;106.68;;;40.45;;
41623;SDS011;27319;50.306;18.926;2023-12-07T06:57:32;119.10;;;45.08;;
41623;SDS011;27319;50.306;18.926;2023-12-07T07:00:33;116.57;;;44.58;;
41623;SDS011;27319;50.306;18.926;2023-12-07T07:03:34;107.90;;;42.33;;
41623;SDS011;27319;50.306;18.926;2023-12-07T07:06:35;110.40;;;40.90;;
41623;SDS011;27319;50.306;18.926;2023-12-07T07:09:36;112.63;;;42.08;;
41623;SDS011;27319;50.306;18.926;2023-12-07T07:13:37;111.03;;;43.03;;
41623;SDS011;27319;50.306;18.926;2023-12-07T07:17:38;113.03;;;48.05;;
41623;SDS011;27319;50.306;18.926;2023-12-07T07:21:39;106.43;;;43.25;;
41623;SDS011;27319;50.306;18.926;2023-12-07T07:25:40;113.63;;;45.55;;
41623;SDS011;27319;50.306;18.926;2023-12-07T07:29:40;115.60;;;45.55;;
41623;SDS011;27319;50.306;18.926;2023-12-07T07:33:41;119.28;;;51.33;;
41623;SDS011;27319;50.306;18.926;2023-12-07T07:37:42;112.63;;;45.40;;
41623;SDS011;27319;50.306;18.926;2023-12-07T07:41:43;202.68;;;84.70;;
41623;SDS011;27319;50.306;18.926;2023-12-07T07:45:44;141.10;;;58.08;;
41623;SDS011;27319;50.306;18.926;2023-12-07T07:49:44;110.78;;;46.25;;
41623;SDS011;27319;50.306;18.926;2023-12-07T07:53:45;122.38;;;47.75;;
41623;SDS011;27319;50.306;18.926;2023-12-07T07:57:46;107.43;;;42.15;;
41623;SDS011;27319;50.306;18.926;2023-12-07T08:01:47;102.47;;;41.40;;
41623;SDS011;27319;50.306;18.926;2023-12-07T08:05:48;109.95;;;45.33;;
41623;SDS011;27319;50.306;18.926;2023-12-07T08:09:48;104.38;;;41.47;;
41623;SDS011;27319;50.306;18.926;2023-12-07T08:13:49;113.30;;;44.03;;
41623;SDS011;27319;50.306;18.926;2023-12-07T08:17:50;153.00;;;57.53;;
41623;SDS011;27319;50.306;18.926;2023-12-07T08:21:51;155.73;;;62.53;;
41623;SDS011;27319;50.306;18.926;2023-12-07T08:25:52;142.73;;;60.67;;
41623;SDS011;27319;50.306;18.926;2023-12-07T08:29:53;130.35;;;49.88;;
41623;SDS011;27319;50.306;18.926;2023-12-07T08:33:55;128.38;;;51.65;;
41623;SDS011;27319;50.306;18.926;2023-12-07T08:37:54;104.97;;;45.17;;
41623;SDS011;27319;50.306;18.926;2023-12-07T08:41:55;114.90;;;45.10;;
41623;SDS011;27319;50.306;18.926;2023-12-07T08:45:56;110.85;;;44.67;;
41623;SDS011;27319;50.306;18.926;2023-12-07T08:49:57;118.93;;;45.13;;
41623;SDS011;27319;50.306;18.926;2023-12-07T08:53:57;105.82;;;42.40;;
41623;SDS011;27319;50.306;18.926;2023-12-07T08:57:59;100.32;;;41.03;;
41623;SDS011;27319;50.306;18.926;2023-12-07T09:01:59;112.57;;;46.38;;
41623;SDS011;27319;50.306;18.926;2023-12-07T09:06:00;130.18;;;51.70;;
41623;SDS011;27319;50.306;18.926;2023-12-07T09:10:00;104.95;;;43.72;;
41623;SDS011;27319;50.306;18.926;2023-12-07T09:14:01;104.50;;;42.58;;
41623;SDS011;27319;50.306;18.926;2023-12-07T09:18:02;125.22;;;49.15;;
41623;SDS011;27319;50.306;18.926;2023-12-07T09:22:03;121.95;;;46.53;;
41623;SDS011;27319;50.306;18.926;2023-12-07T09:26:04;124.47;;;46.10;;
41623;SDS011;27319;50.306;18.926;2023-12-07T09:30:05;102.22;;;44.40;;
41623;SDS011;27319;50.306;18.926;2023-12-07T09:34:05;107.18;;;43.83;;
41623;SDS011;27319;50.306;18.926;2023-12-07T09:38:06;106.32;;;42.58;;
41623;SDS011;27319;50.306;18.926;2023-12-07T09:42:07;99.30;;;39.92;;
41623;SDS011;27319;50.306;18.926;2023-12-07T09:46:07;118.15;;;48.38;;
41623;SDS011;27319;50.306;18.926;2023-12-07T09:50:08;134.13;;;52.40;;
41623;SDS011;27319;50.306;18.926;2023-12-07T09:54:09;106.38;;;44.22;;
41623;SDS011;27319;50.306;18.926;2023-12-07T09:58:10;97.68;;;41.50;;
41623;SDS011;27319;50.306;18.926;2023-12-07T10:01:12;99.35;;;42.75;;
41623;SDS011;27319;50.306;18.926;2023-12-07T10:05:16;110.38;;;44.67;;
41623;SDS011;27319;50.306;18.926;2023-12-07T10:08:49;120.55;;;48.15;;
41623;SDS011;27319;50.306;18.926;2023-12-07T10:11:50;123.57;;;47.55;;
41623;SDS011;27319;50.306;18.926;2023-12-07T10:15:55;117.60;;;47.65;;
41623;SDS011;27319;50.306;18.926;2023-12-07T10:19:32;122.00;;;51.85;;
41623;SDS011;27319;50.306;18.926;2023-12-07T10:23:44;136.05;;;52.83;;
41623;SDS011;27319;50.306;18.926;2023-12-07T10:27:45;125.00;;;48.13;;
41623;SDS011;27319;50.306;18.926;2023-12-07T10:31:32;117.38;;;48.22;;
41623;SDS011;27319;50.306;18.926;2023-12-07T10:35:32;121.47;;;49.58;;
41623;SDS011;27319;50.306;18.926;2023-12-07T10:39:33;143.00;;;53.88;;
41623;SDS011;27319;50.306;18.926;2023-12-07T10:43:37;145.73;;;54.35;;
41623;SDS011;27319;50.306;18.926;2023-12-07T10:47:37;149.27;;;58.25;;
41623;SDS011;27319;50.306;18.926;2023-12-07T10:51:37;145.52;;;59.88;;
41623;SDS011;27319;50.306;18.926;2023-12-07T10:56:07;150.55;;;61.50;;
41623;SDS011;27319;50.306;18.926;2023-12-07T10:59:51;157.85;;;59.97;;
41623;SDS011;27319;50.306;18.926;2023-12-07T11:03:53;148.35;;;60.42;;
41623;SDS011;27319;50.306;18.926;2023-12-07T11:15:33;171.23;;;66.00;;
41623;SDS011;27319;50.306;18.926;2023-12-07T11:19:43;161.57;;;68.40;;
41623;SDS011;27319;50.306;18.926;2023-12-07T11:23:35;165.15;;;71.40;;
41623;SDS011;27319;50.306;18.926;2023-12-07T11:27:36;167.95;;;70.40;;
41623;SDS011;27319;50.306;18.926;2023-12-07T11:31:45;178.45;;;71.25;;
41623;SDS011;27319;50.306;18.926;2023-12-07T11:39:22;174.15;;;69.00;;
41623;SDS011;27319;50.306;18.926;2023-12-07T11:43:30;179.38;;;67.57;;
41623;SDS011;27319;50.306;18.926;2023-12-07T11:47:30;162.43;;;67.60;;
41623;SDS011;27319;50.306;18.926;2023-12-07T11:51:31;179.70;;;72.10;;
41623;SDS011;27319;50.306;18.926;2023-12-07T11:54:31;179.55;;;76.97;;
41623;SDS011;27319;50.306;18.926;2023-12-07T11:58:33;190.98;;;69.78;;
41623;SDS011;27319;50.306;18.926;2023-12-07T12:02:33;158.60;;;67.07;;
41623;SDS011;27319;50.306;18.926;2023-12-07T12:06:34;158.95;;;66.82;;
41623;SDS011;27319;50.306;18.926;2023-12-07T12:10:35;171.35;;;64.95;;
41623;SDS011;27319;50.306;18.926;2023-12-07T12:14:36;164.50;;;67.15;;
41623;SDS011;27319;50.306;18.926;2023-12-07T12:18:36;184.23;;;74.53;;
41623;SDS011;27319;50.306;18.926;2023-12-07T12:22:37;201.98;;;85.82;;
41623;SDS011;27319;50.306;18.926;2023-12-07T12:26:39;175.05;;;73.22;;
41623;SDS011;27319;50.306;18.926;2023-12-07T12:30:39;161.63;;;67.22;;
41623;SDS011;27319;50.306;18.926;2023-12-07T12:34:40;157.70;;;63.40;;
41623;SDS011;27319;50.306;18.926;2023-12-07T12:38:28;158.15;;;67.03;;
41623;SDS011;27319;50.306;18.926;2023-12-07T12:41:29;155.63;;;65.55;;
41623;SDS011;27319;50.306;18.926;2023-12-07T12:44:31;152.20;;;62.08;;
41623;SDS011;27319;50.306;18.926;2023-12-07T12:47:33;159.40;;;66.45;;
41623;SDS011;27319;50.306;18.926;2023-12-07T12:51:33;176.93;;;73.63;;
41623;SDS011;27319;50.306;18.926;2023-12-07T12:55:38;169.23;;;69.22;;
41623;SDS011;27319;50.306;18.926;2023-12-07T12:59:37;192.75;;;80.05;;
41623;SDS011;27319;50.306;18.926;2023-12-07T13:03:38;174.60;;;75.13;;
41623;SDS011;27319;50.306;18.926;2023-12-07T13:07:39;183.27;;;76.47;;
41623;SDS011;27319;50.306;18.926;2023-12-07T13:11:40;155.43;;;64.07;;
41623;SDS011;27319;50.306;18.926;2023-12-07T13:15:41;142.77;;;64.25;;
41623;SDS011;27319;50.306;18.926;2023-12-07T13:19:41;147.20;;;64.00;;
41623;SDS011;27319;50.306;18.926;2023-12-07T13:23:42;157.20;;;65.60;;
41623;SDS011;27319;50.306;18.926;2023-12-07T13:27:43;150.63;;;60.38;;
41623;SDS011;27319;50.306;18.926;2023-12-07T13:31:44;140.23;;;59.70;;
41623;SDS011;27319;50.306;18.926;2023-12-07T13:35:45;140.98;;;59.22;;
41623;SDS011;27319;50.306;18.926;2023-12-07T13:39:45;140.52;;;55.47;;
41623;SDS011;27319;50.306;18.926;2023-12-07T13:43:46;132.82;;;55.90;;
41623;SDS011;27319;50.306;18.926;2023-12-07T13:47:47;131.38;;;53.08;;
41623;SDS011;27319;50.306;18.926;2023-12-07T13:51:48;123.13;;;51.90;;
41623;SDS011;27319;50.306;18.926;2023-12-07T13:55:48;122.43;;;53.00;;
41623;SDS011;27319;50.306;18.926;2023-12-07T13:59:51;129.40;;;52.58;;
41623;SDS011;27319;50.306;18.926;2023-12-07T14:03:50;139.82;;;60.25;;
41623;SDS011;27319;50.306;18.926;2023-12-07T14:07:51;143.60;;;62.08;;
41623;SDS011;27319;50.306;18.926;2023-12-07T14:10:52;143.70;;;60.97;;
41623;SDS011;27319;50.306;18.926;2023-12-07T14:13:53;161.82;;;63.80;;
41623;SDS011;27319;50.306;18.926;2023-12-07T14:16:54;148.45;;;62.05;;
41623;SDS011;27319;50.306;18.926;2023-12-07T14:19:55;157.27;;;64.43;;
41623;SDS011;27319;50.306;18.926;2023-12-07T14:23:56;156.30;;;67.35;;
41623;SDS011;27319;50.306;18.926;2023-12-07T14:27:57;156.82;;;60.70;;
41623;SDS011;27319;50.306;18.926;2023-12-07T14:31:58;137.40;;;53.90;;
41623;SDS011;27319;50.306;18.926;2023-12-07T14:35:59;122.00;;;50.28;;
41623;SDS011;27319;50.306;18.926;2023-12-07T14:40:00;122.25;;;49.30;;
41623;SDS011;27319;50.306;18.926;2023-12-07T14:43:09;129.03;;;52.47;;
41623;SDS011;27319;50.306;18.926;2023-12-07T14:46:10;135.73;;;53.42;;
41623;SDS011;27319;50.306;18.926;2023-12-07T14:49:11;143.52;;;57.10;;
41623;SDS011;27319;50.306;18.926;2023-12-07T14:53:11;131.50;;;54.83;;
41623;SDS011;27319;50.306;18.926;2023-12-07T14:57:12;119.53;;;49.92;;
41623;SDS011;27319;50.306;18.926;2023-12-07T15:00:13;129.80;;;54.25;;
41623;SDS011;27319;50.306;18.926;2023-12-07T15:03:14;139.27;;;56.40;;
41623;SDS011;27319;50.306;18.926;2023-12-07T15:07:16;118.72;;;50.05;;
41623;SDS011;27319;50.306;18.926;2023-12-07T15:10:16;115.40;;;49.88;;
41623;SDS011;27319;50.306;18.926;2023-12-07T15:13:22;119.00;;;52.00;;
41623;SDS011;27319;50.306;18.926;2023-12-07T15:17:22;134.57;;;56.38;;
41623;SDS011;27319;50.306;18.926;2023-12-07T15:21:23;127.50;;;56.00;;
41623;SDS011;27319;50.306;18.926;2023-12-07T15:25:24;131.77;;;57.70;;
41623;SDS011;27319;50.306;18.926;2023-12-07T15:29:25;150.57;;;63.80;;
41623;SDS011;27319;50.306;18.926;2023-12-07T15:33:25;152.50;;;64.68;;
41623;SDS011;27319;50.306;18.926;2023-12-07T15:37:27;144.18;;;62.53;;
41623;SDS011;27319;50.306;18.926;2023-12-07T15:41:30;157.50;;;67.15;;
41623;SDS011;27319;50.306;18.926;2023-12-07T15:44:31;140.88;;;64.30;;
41623;SDS011;27319;50.306;18.926;2023-12-07T15:48:27;161.18;;;69.90;;
41623;SDS011;27319;50.306;18.926;2023-12-07T15:52:28;145.77;;;61.92;;
41623;SDS011;27319;50.306;18.926;2023-12-07T15:55:50;169.27;;;70.03;;
41623;SDS011;27319;50.306;18.926;2023-12-07T15:59:51;166.35;;;70.53;;
41623;SDS011;27319;50.306;18.926;2023-12-07T16:03:51;165.20;;;72.40;;
41623;SDS011;27319;50.306;18.926;2023-12-07T16:07:52;157.55;;;67.10;;
41623;SDS011;27319;50.306;18.926;2023-12-07T16:11:53;162.50;;;71.70;;
41623;SDS011;27319;50.306;18.926;2023-12-07T16:15:54;144.50;;;64.50;;
41623;SDS011;27319;50.306;18.926;2023-12-07T16:19:22;171.65;;;74.18;;
41623;SDS011;27319;50.306;18.926;2023-12-07T16:23:23;151.20;;;67.10;;
41623;SDS011;27319;50.306;18.926;2023-12-07T16:27:23;155.07;;;68.03;;
41623;SDS011;27319;50.306;18.926;2023-12-07T16:31:24;152.13;;;66.72;;
41623;SDS011;27319;50.306;18.926;2023-12-07T16:35:20;152.20;;;64.40;;
41623;SDS011;27319;50.306;18.926;2023-12-07T16:38:20;151.25;;;62.85;;
41623;SDS011;27319;50.306;18.926;2023-12-07T16:41:21;144.00;;;64.93;;
41623;SDS011;27319;50.306;18.926;2023-12-07T16:44:22;154.20;;;67.07;;
41623;SDS011;27319;50.306;18.926;2023-12-07T16:47:24;154.52;;;66.38;;
41623;SDS011;27319;50.306;18.926;2023-12-07T16:50:24;159.30;;;68.40;;
41623;SDS011;27319;50.306;18.926;2023-12-07T16:53:26;164.63;;;73.10;;
41623;SDS011;27319;50.306;18.926;2023-12-07T16:56:27;151.73;;;70.40;;
41623;SDS011;27319;50.306;18.926;2023-12-07T17:00:28;159.98;;;68.47;;
41623;SDS011;27319;50.306;18.926;2023-12-07T17:04:28;164.15;;;69.53;;
41623;SDS011;27319;50.306;18.926;2023-12-07T17:08:29;159.20;;;68.68;;
41623;SDS011;27319;50.306;18.926;2023-12-07T17:12:30;153.35;;;65.35;;
41623;SDS011;27319;50.306;18.926;2023-12-07T17:15:31;157.10;;;67.53;;
41623;SDS011;27319;50.306;18.926;2023-12-07T17:18:53;149.25;;;65.35;;
41623;SDS011;27319;50.306;18.926;2023-12-07T17:21:54;162.27;;;70.00;;
41623;SDS011;27319;50.306;18.926;2023-12-07T17:25:58;154.13;;;65.05;;
41623;SDS011;27319;50.306;18.926;2023-12-07T17:28:59;155.40;;;66.50;;
41623;SDS011;27319;50.306;18.926;2023-12-07T17:33:00;169.65;;;69.57;;
41623;SDS011;27319;50.306;18.926;2023-12-07T17:37:00;156.15;;;66.25;;
41623;SDS011;27319;50.306;18.926;2023-12-07T17:40:22;173.93;;;71.18;;
41623;SDS011;27319;50.306;18.926;2023-12-07T17:43:23;170.10;;;72.53;;
41623;SDS011;27319;50.306;18.926;2023-12-07T17:46:24;159.20;;;67.20;;
41623;SDS011;27319;50.306;18.926;2023-12-07T17:50:24;151.50;;;65.68;;
41623;SDS011;27319;50.306;18.926;2023-12-07T17:54:25;172.80;;;73.90;;
41623;SDS011;27319;50.306;18.926;2023-12-07T17:58:26;212.60;;;93.28;;
41623;SDS011;27319;50.306;18.926;2023-12-07T18:02:27;226.10;;;99.47;;
41623;SDS011;27319;50.306;18.926;2023-12-07T18:06:28;236.65;;;103.65;;
41623;SDS011;27319;50.306;18.926;2023-12-07T18:10:29;206.55;;;92.05;;
41623;SDS011;27319;50.306;18.926;2023-12-07T18:13:56;202.88;;;90.28;;
41623;SDS011;27319;50.306;18.926;2023-12-07T18:17:57;207.90;;;91.15;;
41623;SDS011;27319;50.306;18.926;2023-12-07T18:21:58;205.50;;;90.57;;
41623;SDS011;27319;50.306;18.926;2023-12-07T18:25:59;205.27;;;91.43;;
41623;SDS011;27319;50.306;18.926;2023-12-07T18:30:00;201.43;;;86.68;;
41623;SDS011;27319;50.306;18.926;2023-12-07T18:34:00;189.27;;;82.75;;
41623;SDS011;27319;50.306;18.926;2023-12-07T18:38:01;184.73;;;83.10;;
41623;SDS011;27319;50.306;18.926;2023-12-07T18:42:02;188.98;;;81.07;;
41623;SDS011;27319;50.306;18.926;2023-12-07T18:46:03;239.65;;;107.10;;
41623;SDS011;27319;50.306;18.926;2023-12-07T18:50:04;246.82;;;110.53;;
41623;SDS011;27319;50.306;18.926;2023-12-07T18:54:05;203.65;;;90.72;;
41623;SDS011;27319;50.306;18.926;2023-12-07T18:58:06;186.95;;;85.75;;
41623;SDS011;27319;50.306;18.926;2023-12-07T19:02:06;198.32;;;84.32;;
41623;SDS011;27319;50.306;18.926;2023-12-07T19:06:07;206.25;;;87.78;;
41623;SDS011;27319;50.306;18.926;2023-12-07T19:10:08;189.30;;;84.47;;
41623;SDS011;27319;50.306;18.926;2023-12-07T19:14:09;196.77;;;89.35;;
41623;SDS011;27319;50.306;18.926;2023-12-07T19:18:10;218.10;;;91.50;;
41623;SDS011;27319;50.306;18.926;2023-12-07T19:22:10;199.70;;;85.85;;
41623;SDS011;27319;50.306;18.926;2023-12-07T19:26:11;223.35;;;99.10;;
41623;SDS011;27319;50.306;18.926;2023-12-07T19:30:12;212.55;;;90.50;;
41623;SDS011;27319;50.306;18.926;2023-12-07T19:34:13;191.57;;;83.65;;
41623;SDS011;27319;50.306;18.926;2023-12-07T19:38:14;208.32;;;93.60;;
41623;SDS011;27319;50.306;18.926;2023-12-07T19:42:15;211.77;;;91.97;;
41623;SDS011;27319;50.306;18.926;2023-12-07T19:46:16;238.65;;;104.65;;
41623;SDS011;27319;50.306;18.926;2023-12-07T19:50:16;222.00;;;98.60;;
41623;SDS011;27319;50.306;18.926;2023-12-07T19:54:17;233.75;;;101.68;;
41623;SDS011;27319;50.306;18.926;2023-12-07T19:58:18;250.13;;;103.57;;
41623;SDS011;27319;50.306;18.926;2023-12-07T20:02:18;224.23;;;95.18;;
41623;SDS011;27319;50.306;18.926;2023-12-07T20:06:19;227.10;;;99.30;;
41623;SDS011;27319;50.306;18.926;2023-12-07T20:09:22;253.02;;;105.32;;
41623;SDS011;27319;50.306;18.926;2023-12-07T20:13:23;234.02;;;102.95;;
41623;SDS011;27319;50.306;18.926;2023-12-07T20:17:24;216.13;;;97.03;;
41623;SDS011;27319;50.306;18.926;2023-12-07T20:21:25;214.45;;;93.97;;
41623;SDS011;27319;50.306;18.926;2023-12-07T20:24:43;224.07;;;92.72;;
41623;SDS011;27319;50.306;18.926;2023-12-07T20:28:44;250.93;;;103.18;;
41623;SDS011;27319;50.306;18.926;2023-12-07T20:32:45;269.58;;;111.63;;
41623;SDS011;27319;50.306;18.926;2023-12-07T20:36:46;237.48;;;99.50;;
41623;SDS011;27319;50.306;18.926;2023-12-07T20:40:47;231.63;;;99.15;;
41623;SDS011;27319;50.306;18.926;2023-12-07T20:44:47;228.82;;;95.97;;
41623;SDS011;27319;50.306;18.926;2023-12-07T20:48:48;210.90;;;97.63;;
41623;SDS011;27319;50.306;18.926;2023-12-07T20:52:49;229.93;;;100.88;;
41623;SDS011;27319;50.306;18.926;2023-12-07T20:56:49;219.07;;;99.55;;
41623;SDS011;27319;50.306;18.926;2023-12-07T21:00:50;249.00;;;107.63;;
41623;SDS011;27319;50.306;18.926;2023-12-07T21:03:51;245.90;;;111.85;;
41623;SDS011;27319;50.306;18.926;2023-12-07T21:07:52;219.40;;;96.68;;
41623;SDS011;27319;50.306;18.926;2023-12-07T21:11:53;196.15;;;87.25;;
41623;SDS011;27319;50.306;18.926;2023-12-07T21:15:54;196.50;;;85.28;;
41623;SDS011;27319;50.306;18.926;2023-12-07T21:19:54;204.45;;;91.13;;
41623;SDS011;27319;50.306;18.926;2023-12-07T21:23:55;204.65;;;89.20;;
41623;SDS011;27319;50.306;18.926;2023-12-07T21:27:56;197.93;;;90.68;;
41623;SDS011;27319;50.306;18.926;2023-12-07T21:31:57;208.60;;;89.50;;
41623;SDS011;27319;50.306;18.926;2023-12-07T21:35:57;227.57;;;93.32;;
41623;SDS011;27319;50.306;18.926;2023-12-07T21:39:06;217.75;;;92.15;;
41623;SDS011;27319;50.306;18.926;2023-12-07T21:43:07;210.90;;;90.03;;
41623;SDS011;27319;50.306;18.926;2023-12-07T21:47:07;216.35;;;92.93;;
41623;SDS011;27319;50.306;18.926;2023-12-07T21:51:09;225.77;;;99.97;;
41623;SDS011;27319;50.306;18.926;2023-12-07T21:55:09;225.57;;;102.22;;
41623;SDS011;27319;50.306;18.926;2023-12-07T21:58:37;192.80;;;84.38;;
41623;SDS011;27319;50.306;18.926;2023-12-07T22:02:38;183.40;;;81.13;;
41623;SDS011;27319;50.306;18.926;2023-12-07T22:06:39;166.88;;;74.72;;
41623;SDS011;27319;50.306;18.926;2023-12-07T22:10:40;162.40;;;70.40;;
41623;SDS011;27319;50.306;18.926;2023-12-07T22:14:41;147.63;;;66.18;;
41623;SDS011;27319;50.306;18.926;2023-12-07T22:18:41;162.05;;;68.53;;